sensor_id;sensor_type;location;lat;lon;timestamp;P1;durP1;ratioP1;P2;durP2;ratioP2
2792;SDS011;1404;49.650;8.574;2022-07-29T00:00:08;7.30;;;3.60;;
2792;SDS011;1404;49.650;8.574;2022-07-29T00:02:34;4.23;;;2.87;;
2792;SDS011;1404;49.650;8.574;2022-07-29T00:05:01;7.23;;;3.67;;
2792;SDS011;1404;49.650;8.574;2022-07-29T00:07:27;4.70;;;3.40;;
2792;SDS011;1404;49.650;8.574;2022-07-29T00:09:53;6.77;;;3.50;;
2792;SDS011;1404;49.650;8.574;2022-07-29T00:12:20;5.37;;;3.40;;
2792;SDS011;1404;49.650;8.574;2022-07-29T00:14:46;9.57;;;3.43;;
2792;SDS011;1404;49.650;8.574;2022-07-29T00:17:12;8.20;;;3.60;;
2792;SDS011;1404;49.650;8.574;2022-07-29T00:19:38;5.13;;;3.37;;
2792;SDS011;1404;49.650;8.574;2022-07-29T00:22:04;11.63;;;3.87;;
2792;SDS011;1404;49.650;8.574;2022-07-29T00:24:30;9.43;;;3.03;;
2792;SDS011;1404;49.650;8.574;2022-07-29T00:26:56;4.00;;;2.90;;
2792;SDS011;1404;49.650;8.574;2022-07-29T00:29:22;3.90;;;2.70;;
2792;SDS011;1404;49.650;8.574;2022-07-29T00:31:48;7.27;;;2.63;;
2792;SDS011;1404;49.650;8.574;2022-07-29T00:34:14;11.27;;;3.50;;
2792;SDS011;1404;49.650;8.574;2022-07-29T00:36:59;9.57;;;3.50;;
2792;SDS011;1404;49.650;8.574;2022-07-29T00:39:25;3.63;;;2.83;;
2792;SDS011;1404;49.650;8.574;2022-07-29T00:41:51;4.87;;;2.60;;
2792;SDS011;1404;49.650;8.574;2022-07-29T00:44:17;8.73;;;3.37;;
2792;SDS011;1404;49.650;8.574;2022-07-29T00:46:43;10.70;;;3.60;;
2792;SDS011;1404;49.650;8.574;2022-07-29T00:49:09;9.83;;;3.03;;
2792;SDS011;1404;49.650;8.574;2022-07-29T00:51:35;5.67;;;3.10;;
2792;SDS011;1404;49.650;8.574;2022-07-29T00:54:02;8.83;;;4.37;;
2792;SDS011;1404;49.650;8.574;2022-07-29T00:56:32;8.33;;;3.13;;
2792;SDS011;1404;49.650;8.574;2022-07-29T00:58:58;4.00;;;3.07;;
2792;SDS011;1404;49.650;8.574;2022-07-29T01:01:25;5.13;;;3.17;;
2792;SDS011;1404;49.650;8.574;2022-07-29T01:03:51;7.27;;;3.13;;
2792;SDS011;1404;49.650;8.574;2022-07-29T01:06:17;8.63;;;3.70;;
2792;SDS011;1404;49.650;8.574;2022-07-29T01:08:44;10.03;;;3.00;;
2792;SDS011;1404;49.650;8.574;2022-07-29T01:11:10;5.17;;;2.97;;
2792;SDS011;1404;49.650;8.574;2022-07-29T01:13:36;8.67;;;3.30;;
2792;SDS011;1404;49.650;8.574;2022-07-29T01:16:04;6.63;;;3.37;;
2792;SDS011;1404;49.650;8.574;2022-07-29T01:18:37;6.20;;;3.73;;
2792;SDS011;1404;49.650;8.574;2022-07-29T01:31:15;6.90;;;2.97;;
2792;SDS011;1404;49.650;8.574;2022-07-29T01:33:43;7.43;;;3.63;;
2792;SDS011;1404;49.650;8.574;2022-07-29T01:36:19;5.33;;;2.97;;
2792;SDS011;1404;49.650;8.574;2022-07-29T01:38:51;6.63;;;3.50;;
2792;SDS011;1404;49.650;8.574;2022-07-29T01:41:18;3.70;;;3.10;;
2792;SDS011;1404;49.650;8.574;2022-07-29T01:43:56;5.80;;;3.70;;
2792;SDS011;1404;49.650;8.574;2022-07-29T01:46:25;3.73;;;3.30;;
2792;SDS011;1404;49.650;8.574;2022-07-29T01:48:53;11.93;;;4.00;;
2792;SDS011;1404;49.650;8.574;2022-07-29T01:51:21;6.63;;;4.30;;
2792;SDS011;1404;49.650;8.574;2022-07-29T01:53:55;8.33;;;3.30;;
2792;SDS011;1404;49.650;8.574;2022-07-29T01:56:23;9.07;;;3.77;;
2792;SDS011;1404;49.650;8.574;2022-07-29T01:58:49;8.93;;;3.27;;
2792;SDS011;1404;49.650;8.574;2022-07-29T02:01:17;3.93;;;3.33;;
2792;SDS011;1404;49.650;8.574;2022-07-29T02:03:44;3.70;;;3.37;;
2792;SDS011;1404;49.650;8.574;2022-07-29T02:06:11;4.30;;;3.90;;
2792;SDS011;1404;49.650;8.574;2022-07-29T02:08:38;4.00;;;3.67;;
2792;SDS011;1404;49.650;8.574;2022-07-29T02:11:05;4.90;;;3.70;;
2792;SDS011;1404;49.650;8.574;2022-07-29T02:13:31;7.93;;;3.40;;
2792;SDS011;1404;49.650;8.574;2022-07-29T02:16:00;4.13;;;3.77;;
2792;SDS011;1404;49.650;8.574;2022-07-29T02:18:28;5.20;;;3.07;;
2792;SDS011;1404;49.650;8.574;2022-07-29T02:20:55;8.53;;;3.60;;
2792;SDS011;1404;49.650;8.574;2022-07-29T02:23:22;6.03;;;3.80;;
2792;SDS011;1404;49.650;8.574;2022-07-29T02:25:52;4.20;;;3.67;;
2792;SDS011;1404;49.650;8.574;2022-07-29T02:28:19;7.70;;;3.70;;
2792;SDS011;1404;49.650;8.574;2022-07-29T02:30:45;6.20;;;3.27;;
2792;SDS011;1404;49.650;8.574;2022-07-29T02:33:13;5.20;;;3.60;;
2792;SDS011;1404;49.650;8.574;2022-07-29T02:35:39;5.73;;;3.30;;
2792;SDS011;1404;49.650;8.574;2022-07-29T02:38:06;6.93;;;4.10;;
2792;SDS011;1404;49.650;8.574;2022-07-29T02:40:52;6.90;;;3.50;;
2792;SDS011;1404;49.650;8.574;2022-07-29T02:43:18;4.90;;;3.40;;
2792;SDS011;1404;49.650;8.574;2022-07-29T02:45:45;6.37;;;3.20;;
2792;SDS011;1404;49.650;8.574;2022-07-29T02:48:13;7.43;;;3.20;;
2792;SDS011;1404;49.650;8.574;2022-07-29T02:50:42;5.07;;;3.80;;
2792;SDS011;1404;49.650;8.574;2022-07-29T02:53:14;6.17;;;3.50;;
2792;SDS011;1404;49.650;8.574;2022-07-29T02:58:30;6.00;;;3.40;;
2792;SDS011;1404;49.650;8.574;2022-07-29T03:00:58;6.33;;;3.80;;
2792;SDS011;1404;49.650;8.574;2022-07-29T03:03:26;9.17;;;4.33;;
2792;SDS011;1404;49.650;8.574;2022-07-29T03:05:57;4.97;;;3.53;;
2792;SDS011;1404;49.650;8.574;2022-07-29T03:08:23;3.57;;;3.20;;
2792;SDS011;1404;49.650;8.574;2022-07-29T03:10:50;6.10;;;3.80;;
2792;SDS011;1404;49.650;8.574;2022-07-29T03:13:17;5.93;;;3.50;;
2792;SDS011;1404;49.650;8.574;2022-07-29T03:15:44;8.97;;;3.80;;
2792;SDS011;1404;49.650;8.574;2022-07-29T03:18:10;3.93;;;3.67;;
2792;SDS011;1404;49.650;8.574;2022-07-29T03:20:37;3.93;;;3.30;;
2792;SDS011;1404;49.650;8.574;2022-07-29T03:23:03;5.10;;;3.10;;
2792;SDS011;1404;49.650;8.574;2022-07-29T03:25:30;5.73;;;3.50;;
2792;SDS011;1404;49.650;8.574;2022-07-29T03:27:56;3.67;;;3.20;;
2792;SDS011;1404;49.650;8.574;2022-07-29T03:30:22;5.67;;;3.70;;
2792;SDS011;1404;49.650;8.574;2022-07-29T03:32:49;5.13;;;3.17;;
2792;SDS011;1404;49.650;8.574;2022-07-29T03:35:15;23.73;;;5.60;;
2792;SDS011;1404;49.650;8.574;2022-07-29T03:37:42;4.37;;;3.17;;
2792;SDS011;1404;49.650;8.574;2022-07-29T03:40:09;5.57;;;2.97;;
2792;SDS011;1404;49.650;8.574;2022-07-29T03:42:36;4.50;;;3.83;;
2792;SDS011;1404;49.650;8.574;2022-07-29T03:45:05;4.13;;;3.40;;
2792;SDS011;1404;49.650;8.574;2022-07-29T03:47:32;8.10;;;3.50;;
2792;SDS011;1404;49.650;8.574;2022-07-29T03:50:02;3.63;;;3.00;;
2792;SDS011;1404;49.650;8.574;2022-07-29T03:52:31;3.50;;;3.20;;
2792;SDS011;1404;49.650;8.574;2022-07-29T03:54:57;3.90;;;3.50;;
2792;SDS011;1404;49.650;8.574;2022-07-29T03:57:24;4.70;;;3.10;;
2792;SDS011;1404;49.650;8.574;2022-07-29T03:59:50;5.10;;;3.80;;
2792;SDS011;1404;49.650;8.574;2022-07-29T04:02:17;4.33;;;3.30;;
2792;SDS011;1404;49.650;8.574;2022-07-29T04:04:43;3.70;;;3.23;;
2792;SDS011;1404;49.650;8.574;2022-07-29T04:07:13;7.20;;;3.77;;
2792;SDS011;1404;49.650;8.574;2022-07-29T04:09:39;4.83;;;3.93;;
2792;SDS011;1404;49.650;8.574;2022-07-29T04:12:05;6.80;;;5.97;;
2792;SDS011;1404;49.650;8.574;2022-07-29T04:14:31;7.70;;;3.60;;
2792;SDS011;1404;49.650;8.574;2022-07-29T04:16:58;6.97;;;3.63;;
2792;SDS011;1404;49.650;8.574;2022-07-29T04:19:24;6.83;;;3.60;;
2792;SDS011;1404;49.650;8.574;2022-07-29T04:21:50;8.03;;;3.07;;
2792;SDS011;1404;49.650;8.574;2022-07-29T04:24:16;8.83;;;3.70;;
2792;SDS011;1404;49.650;8.574;2022-07-29T04:26:42;6.97;;;3.93;;
2792;SDS011;1404;49.650;8.574;2022-07-29T04:29:08;5.60;;;3.00;;
2792;SDS011;1404;49.650;8.574;2022-07-29T04:31:34;4.63;;;3.20;;
2792;SDS011;1404;49.650;8.574;2022-07-29T04:34:00;3.83;;;3.33;;
2792;SDS011;1404;49.650;8.574;2022-07-29T04:36:26;9.80;;;3.80;;
2792;SDS011;1404;49.650;8.574;2022-07-29T04:38:52;4.50;;;4.10;;
2792;SDS011;1404;49.650;8.574;2022-07-29T04:41:18;4.33;;;3.60;;
2792;SDS011;1404;49.650;8.574;2022-07-29T04:43:44;5.60;;;3.63;;
2792;SDS011;1404;49.650;8.574;2022-07-29T04:46:10;12.93;;;3.70;;
2792;SDS011;1404;49.650;8.574;2022-07-29T04:48:36;3.93;;;3.53;;
2792;SDS011;1404;49.650;8.574;2022-07-29T04:51:02;4.60;;;3.57;;
2792;SDS011;1404;49.650;8.574;2022-07-29T04:53:28;3.67;;;3.37;;
2792;SDS011;1404;49.650;8.574;2022-07-29T04:55:54;4.53;;;2.97;;
2792;SDS011;1404;49.650;8.574;2022-07-29T04:58:20;5.03;;;3.60;;
2792;SDS011;1404;49.650;8.574;2022-07-29T05:00:48;4.57;;;3.40;;
2792;SDS011;1404;49.650;8.574;2022-07-29T05:03:14;9.63;;;4.17;;
2792;SDS011;1404;49.650;8.574;2022-07-29T05:05:40;5.70;;;3.40;;
2792;SDS011;1404;49.650;8.574;2022-07-29T05:08:07;7.83;;;3.80;;
2792;SDS011;1404;49.650;8.574;2022-07-29T05:10:34;6.80;;;3.63;;
2792;SDS011;1404;49.650;8.574;2022-07-29T05:13:05;11.27;;;3.70;;
2792;SDS011;1404;49.650;8.574;2022-07-29T05:15:32;8.23;;;3.70;;
2792;SDS011;1404;49.650;8.574;2022-07-29T05:17:58;3.70;;;3.40;;
2792;SDS011;1404;49.650;8.574;2022-07-29T05:20:24;4.50;;;3.13;;
2792;SDS011;1404;49.650;8.574;2022-07-29T05:22:53;7.50;;;3.47;;
2792;SDS011;1404;49.650;8.574;2022-07-29T05:25:19;4.30;;;3.33;;
2792;SDS011;1404;49.650;8.574;2022-07-29T05:27:46;7.50;;;3.50;;
2792;SDS011;1404;49.650;8.574;2022-07-29T05:30:12;6.33;;;3.30;;
2792;SDS011;1404;49.650;8.574;2022-07-29T05:32:38;7.43;;;3.53;;
2792;SDS011;1404;49.650;8.574;2022-07-29T05:35:05;8.23;;;3.60;;
2792;SDS011;1404;49.650;8.574;2022-07-29T05:37:31;5.87;;;3.57;;
2792;SDS011;1404;49.650;8.574;2022-07-29T05:39:57;5.63;;;3.27;;
2792;SDS011;1404;49.650;8.574;2022-07-29T05:42:23;6.97;;;3.30;;
2792;SDS011;1404;49.650;8.574;2022-07-29T05:44:49;9.03;;;3.73;;
2792;SDS011;1404;49.650;8.574;2022-07-29T05:47:16;6.23;;;3.53;;
2792;SDS011;1404;49.650;8.574;2022-07-29T05:49:42;4.93;;;3.20;;
2792;SDS011;1404;49.650;8.574;2022-07-29T05:52:08;11.43;;;4.93;;
2792;SDS011;1404;49.650;8.574;2022-07-29T05:54:34;12.33;;;5.20;;
2792;SDS011;1404;49.650;8.574;2022-07-29T05:57:00;3.40;;;3.10;;
2792;SDS011;1404;49.650;8.574;2022-07-29T05:59:26;7.13;;;3.13;;
2792;SDS011;1404;49.650;8.574;2022-07-29T06:01:52;12.07;;;3.97;;
2792;SDS011;1404;49.650;8.574;2022-07-29T06:04:18;7.33;;;3.90;;
2792;SDS011;1404;49.650;8.574;2022-07-29T06:06:44;5.17;;;3.40;;
2792;SDS011;1404;49.650;8.574;2022-07-29T06:09:10;5.97;;;3.90;;
2792;SDS011;1404;49.650;8.574;2022-07-29T06:11:37;10.67;;;4.63;;
2792;SDS011;1404;49.650;8.574;2022-07-29T06:14:03;9.87;;;4.00;;
2792;SDS011;1404;49.650;8.574;2022-07-29T06:16:29;4.13;;;3.73;;
2792;SDS011;1404;49.650;8.574;2022-07-29T06:18:55;6.70;;;3.40;;
2792;SDS011;1404;49.650;8.574;2022-07-29T06:21:21;5.17;;;3.73;;
2792;SDS011;1404;49.650;8.574;2022-07-29T06:23:47;8.23;;;3.80;;
2792;SDS011;1404;49.650;8.574;2022-07-29T06:26:13;19.60;;;4.97;;
2792;SDS011;1404;49.650;8.574;2022-07-29T06:28:39;6.33;;;4.03;;
2792;SDS011;1404;49.650;8.574;2022-07-29T06:31:05;14.63;;;5.40;;
2792;SDS011;1404;49.650;8.574;2022-07-29T06:33:31;10.23;;;4.60;;
2792;SDS011;1404;49.650;8.574;2022-07-29T06:35:58;6.93;;;3.90;;
2792;SDS011;1404;49.650;8.574;2022-07-29T06:38:24;6.67;;;4.27;;
2792;SDS011;1404;49.650;8.574;2022-07-29T06:40:50;5.10;;;4.03;;
2792;SDS011;1404;49.650;8.574;2022-07-29T06:43:29;5.13;;;3.80;;
2792;SDS011;1404;49.650;8.574;2022-07-29T06:46:04;6.53;;;3.73;;
2792;SDS011;1404;49.650;8.574;2022-07-29T06:48:30;3.87;;;3.57;;
2792;SDS011;1404;49.650;8.574;2022-07-29T06:50:57;5.13;;;4.17;;
2792;SDS011;1404;49.650;8.574;2022-07-29T06:53:23;4.13;;;3.60;;
2792;SDS011;1404;49.650;8.574;2022-07-29T06:55:49;5.93;;;5.07;;
2792;SDS011;1404;49.650;8.574;2022-07-29T06:58:16;8.43;;;4.20;;
2792;SDS011;1404;49.650;8.574;2022-07-29T07:00:44;8.33;;;4.37;;
2792;SDS011;1404;49.650;8.574;2022-07-29T07:03:10;5.33;;;4.70;;
2792;SDS011;1404;49.650;8.574;2022-07-29T07:05:36;6.40;;;4.93;;
2792;SDS011;1404;49.650;8.574;2022-07-29T07:08:03;4.40;;;3.97;;
2792;SDS011;1404;49.650;8.574;2022-07-29T07:10:29;4.87;;;4.20;;
2792;SDS011;1404;49.650;8.574;2022-07-29T07:12:55;5.00;;;4.50;;
2792;SDS011;1404;49.650;8.574;2022-07-29T07:15:21;5.80;;;5.27;;
2792;SDS011;1404;49.650;8.574;2022-07-29T07:17:48;4.77;;;4.40;;
2792;SDS011;1404;49.650;8.574;2022-07-29T07:20:14;7.33;;;4.50;;
2792;SDS011;1404;49.650;8.574;2022-07-29T07:22:41;6.40;;;4.47;;
2792;SDS011;1404;49.650;8.574;2022-07-29T07:25:07;5.23;;;4.53;;
2792;SDS011;1404;49.650;8.574;2022-07-29T07:27:34;4.47;;;4.07;;
2792;SDS011;1404;49.650;8.574;2022-07-29T07:30:00;4.97;;;4.47;;
2792;SDS011;1404;49.650;8.574;2022-07-29T07:32:26;6.63;;;4.17;;
2792;SDS011;1404;49.650;8.574;2022-07-29T07:34:52;8.40;;;4.27;;
2792;SDS011;1404;49.650;8.574;2022-07-29T07:37:18;5.70;;;4.50;;
2792;SDS011;1404;49.650;8.574;2022-07-29T07:39:45;6.30;;;4.80;;
2792;SDS011;1404;49.650;8.574;2022-07-29T07:42:12;5.40;;;4.50;;
2792;SDS011;1404;49.650;8.574;2022-07-29T07:44:38;6.07;;;5.27;;
2792;SDS011;1404;49.650;8.574;2022-07-29T07:47:05;11.73;;;4.30;;
2792;SDS011;1404;49.650;8.574;2022-07-29T07:49:31;5.57;;;4.63;;
2792;SDS011;1404;49.650;8.574;2022-07-29T07:51:57;5.23;;;4.57;;
2792;SDS011;1404;49.650;8.574;2022-07-29T07:54:23;12.37;;;5.23;;
2792;SDS011;1404;49.650;8.574;2022-07-29T07:56:49;7.83;;;4.50;;
2792;SDS011;1404;49.650;8.574;2022-07-29T07:59:15;7.93;;;5.17;;
2792;SDS011;1404;49.650;8.574;2022-07-29T08:01:41;6.87;;;4.80;;
2792;SDS011;1404;49.650;8.574;2022-07-29T08:04:08;6.60;;;4.73;;
2792;SDS011;1404;49.650;8.574;2022-07-29T08:06:34;12.00;;;4.30;;
2792;SDS011;1404;49.650;8.574;2022-07-29T08:09:01;5.17;;;4.77;;
2792;SDS011;1404;49.650;8.574;2022-07-29T08:11:27;8.17;;;4.80;;
2792;SDS011;1404;49.650;8.574;2022-07-29T08:13:53;5.57;;;4.90;;
2792;SDS011;1404;49.650;8.574;2022-07-29T08:16:20;6.00;;;4.77;;
2792;SDS011;1404;49.650;8.574;2022-07-29T08:18:46;6.67;;;5.60;;
2792;SDS011;1404;49.650;8.574;2022-07-29T08:21:13;6.63;;;3.90;;
2792;SDS011;1404;49.650;8.574;2022-07-29T08:23:40;10.23;;;4.10;;
2792;SDS011;1404;49.650;8.574;2022-07-29T08:26:17;6.70;;;4.70;;
2792;SDS011;1404;49.650;8.574;2022-07-29T08:28:44;8.70;;;4.73;;
2792;SDS011;1404;49.650;8.574;2022-07-29T08:31:11;10.53;;;5.33;;
2792;SDS011;1404;49.650;8.574;2022-07-29T08:33:37;7.23;;;4.13;;
2792;SDS011;1404;49.650;8.574;2022-07-29T08:36:04;7.30;;;3.90;;
2792;SDS011;1404;49.650;8.574;2022-07-29T08:38:30;9.60;;;4.40;;
2792;SDS011;1404;49.650;8.574;2022-07-29T08:40:56;7.67;;;4.77;;
2792;SDS011;1404;49.650;8.574;2022-07-29T08:43:23;5.00;;;4.60;;
2792;SDS011;1404;49.650;8.574;2022-07-29T08:45:50;5.97;;;4.93;;
2792;SDS011;1404;49.650;8.574;2022-07-29T08:48:17;7.00;;;5.07;;
2792;SDS011;1404;49.650;8.574;2022-07-29T08:50:44;8.23;;;5.03;;
2792;SDS011;1404;49.650;8.574;2022-07-29T08:53:11;7.17;;;5.30;;
2792;SDS011;1404;49.650;8.574;2022-07-29T08:55:47;6.17;;;5.57;;
2792;SDS011;1404;49.650;8.574;2022-07-29T08:58:14;8.60;;;5.30;;
2792;SDS011;1404;49.650;8.574;2022-07-29T09:00:41;8.83;;;5.47;;
2792;SDS011;1404;49.650;8.574;2022-07-29T09:03:07;11.50;;;4.70;;
2792;SDS011;1404;49.650;8.574;2022-07-29T09:05:34;4.83;;;4.17;;
2792;SDS011;1404;49.650;8.574;2022-07-29T09:08:01;11.07;;;6.20;;
2792;SDS011;1404;49.650;8.574;2022-07-29T09:10:27;9.47;;;5.50;;
2792;SDS011;1404;49.650;8.574;2022-07-29T09:12:54;8.57;;;5.37;;
2792;SDS011;1404;49.650;8.574;2022-07-29T09:15:21;6.13;;;5.53;;
2792;SDS011;1404;49.650;8.574;2022-07-29T09:17:48;12.50;;;6.10;;
2792;SDS011;1404;49.650;8.574;2022-07-29T09:20:15;7.00;;;5.37;;
2792;SDS011;1404;49.650;8.574;2022-07-29T09:22:41;6.00;;;5.17;;
2792;SDS011;1404;49.650;8.574;2022-07-29T09:25:08;8.50;;;5.07;;
2792;SDS011;1404;49.650;8.574;2022-07-29T09:27:34;10.93;;;5.50;;
2792;SDS011;1404;49.650;8.574;2022-07-29T09:30:04;9.50;;;5.20;;
2792;SDS011;1404;49.650;8.574;2022-07-29T09:32:32;9.53;;;5.97;;
2792;SDS011;1404;49.650;8.574;2022-07-29T09:35:14;6.17;;;5.57;;
2792;SDS011;1404;49.650;8.574;2022-07-29T09:37:41;9.53;;;4.90;;
2792;SDS011;1404;49.650;8.574;2022-07-29T09:40:11;11.23;;;6.77;;
2792;SDS011;1404;49.650;8.574;2022-07-29T09:42:37;9.03;;;5.70;;
2792;SDS011;1404;49.650;8.574;2022-07-29T09:45:03;6.87;;;4.93;;
2792;SDS011;1404;49.650;8.574;2022-07-29T09:47:42;5.93;;;5.33;;
2792;SDS011;1404;49.650;8.574;2022-07-29T09:50:10;10.00;;;5.30;;
2792;SDS011;1404;49.650;8.574;2022-07-29T09:52:44;9.50;;;5.17;;
2792;SDS011;1404;49.650;8.574;2022-07-29T09:55:10;7.20;;;5.10;;
2792;SDS011;1404;49.650;8.574;2022-07-29T09:57:36;8.13;;;5.47;;
2792;SDS011;1404;49.650;8.574;2022-07-29T10:00:09;8.43;;;5.47;;
2792;SDS011;1404;49.650;8.574;2022-07-29T10:02:36;8.33;;;5.47;;
2792;SDS011;1404;49.650;8.574;2022-07-29T10:05:04;7.27;;;5.90;;
2792;SDS011;1404;49.650;8.574;2022-07-29T10:07:47;8.30;;;5.50;;
2792;SDS011;1404;49.650;8.574;2022-07-29T10:13:01;10.60;;;5.80;;
2792;SDS011;1404;49.650;8.574;2022-07-29T10:15:31;8.40;;;5.17;;
2792;SDS011;1404;49.650;8.574;2022-07-29T10:17:58;12.93;;;5.70;;
2792;SDS011;1404;49.650;8.574;2022-07-29T10:20:24;11.23;;;6.10;;
2792;SDS011;1404;49.650;8.574;2022-07-29T10:22:51;8.60;;;6.63;;
2792;SDS011;1404;49.650;8.574;2022-07-29T10:25:17;7.40;;;6.23;;
2792;SDS011;1404;49.650;8.574;2022-07-29T10:27:44;10.20;;;6.73;;
2792;SDS011;1404;49.650;8.574;2022-07-29T10:30:11;10.37;;;6.00;;
2792;SDS011;1404;49.650;8.574;2022-07-29T10:32:46;10.40;;;5.90;;
2792;SDS011;1404;49.650;8.574;2022-07-29T10:35:29;14.53;;;6.50;;
2792;SDS011;1404;49.650;8.574;2022-07-29T10:43:42;13.57;;;6.23;;
2792;SDS011;1404;49.650;8.574;2022-07-29T10:46:09;8.63;;;7.83;;
2792;SDS011;1404;49.650;8.574;2022-07-29T10:49:03;9.43;;;6.97;;
2792;SDS011;1404;49.650;8.574;2022-07-29T10:51:22;8.33;;;7.40;;
2792;SDS011;1404;49.650;8.574;2022-07-29T10:53:49;11.10;;;7.13;;
2792;SDS011;1404;49.650;8.574;2022-07-29T10:56:25;7.90;;;6.60;;
2792;SDS011;1404;49.650;8.574;2022-07-29T11:01:36;8.00;;;6.57;;
2792;SDS011;1404;49.650;8.574;2022-07-29T11:04:02;11.10;;;6.30;;
2792;SDS011;1404;49.650;8.574;2022-07-29T11:09:15;9.13;;;6.17;;
2792;SDS011;1404;49.650;8.574;2022-07-29T11:11:42;13.00;;;7.40;;
2792;SDS011;1404;49.650;8.574;2022-07-29T11:14:08;9.57;;;6.43;;
2792;SDS011;1404;49.650;8.574;2022-07-29T11:19:19;8.40;;;6.40;;
2792;SDS011;1404;49.650;8.574;2022-07-29T11:21:45;8.87;;;6.10;;
2792;SDS011;1404;49.650;8.574;2022-07-29T11:24:16;8.20;;;7.30;;
2792;SDS011;1404;49.650;8.574;2022-07-29T11:26:42;7.93;;;7.13;;
2792;SDS011;1404;49.650;8.574;2022-07-29T11:29:21;6.87;;;6.23;;
2792;SDS011;1404;49.650;8.574;2022-07-29T11:31:48;10.43;;;6.30;;
2792;SDS011;1404;49.650;8.574;2022-07-29T11:34:20;7.57;;;6.77;;
2792;SDS011;1404;49.650;8.574;2022-07-29T11:39:31;14.43;;;6.10;;
2792;SDS011;1404;49.650;8.574;2022-07-29T11:45:16;10.23;;;6.27;;
2792;SDS011;1404;49.650;8.574;2022-07-29T11:47:38;6.90;;;6.40;;
2792;SDS011;1404;49.650;8.574;2022-07-29T11:50:06;9.37;;;5.90;;
2792;SDS011;1404;49.650;8.574;2022-07-29T11:52:33;6.33;;;5.77;;
2792;SDS011;1404;49.650;8.574;2022-07-29T11:55:02;6.67;;;5.97;;
2792;SDS011;1404;49.650;8.574;2022-07-29T11:57:29;6.23;;;5.73;;
2792;SDS011;1404;49.650;8.574;2022-07-29T11:59:55;8.03;;;5.40;;
2792;SDS011;1404;49.650;8.574;2022-07-29T12:02:23;12.93;;;5.60;;
2792;SDS011;1404;49.650;8.574;2022-07-29T12:04:56;8.00;;;5.97;;
2792;SDS011;1404;49.650;8.574;2022-07-29T12:07:27;5.33;;;4.93;;
2792;SDS011;1404;49.650;8.574;2022-07-29T12:09:54;7.90;;;5.77;;
2792;SDS011;1404;49.650;8.574;2022-07-29T12:12:20;7.70;;;5.37;;
2792;SDS011;1404;49.650;8.574;2022-07-29T12:14:46;5.37;;;4.97;;
2792;SDS011;1404;49.650;8.574;2022-07-29T12:17:25;6.70;;;5.17;;
2792;SDS011;1404;49.650;8.574;2022-07-29T12:19:55;6.67;;;5.13;;
2792;SDS011;1404;49.650;8.574;2022-07-29T12:22:25;9.97;;;5.23;;
2792;SDS011;1404;49.650;8.574;2022-07-29T12:24:52;5.60;;;5.10;;
2792;SDS011;1404;49.650;8.574;2022-07-29T12:27:18;6.27;;;4.97;;
2792;SDS011;1404;49.650;8.574;2022-07-29T12:29:44;11.53;;;5.03;;
2792;SDS011;1404;49.650;8.574;2022-07-29T12:32:11;7.97;;;4.97;;
2792;SDS011;1404;49.650;8.574;2022-07-29T12:34:37;8.33;;;5.63;;
2792;SDS011;1404;49.650;8.574;2022-07-29T12:37:03;5.30;;;4.80;;
2792;SDS011;1404;49.650;8.574;2022-07-29T12:39:29;5.63;;;4.80;;
2792;SDS011;1404;49.650;8.574;2022-07-29T12:41:56;8.87;;;5.37;;
2792;SDS011;1404;49.650;8.574;2022-07-29T12:44:22;6.17;;;5.23;;
2792;SDS011;1404;49.650;8.574;2022-07-29T12:47:02;6.90;;;5.00;;
2792;SDS011;1404;49.650;8.574;2022-07-29T12:49:28;5.50;;;5.00;;
2792;SDS011;1404;49.650;8.574;2022-07-29T12:51:54;5.27;;;4.77;;
2792;SDS011;1404;49.650;8.574;2022-07-29T12:54:20;4.83;;;4.43;;
2792;SDS011;1404;49.650;8.574;2022-07-29T12:56:58;5.30;;;4.70;;
2792;SDS011;1404;49.650;8.574;2022-07-29T12:59:25;5.80;;;5.03;;
2792;SDS011;1404;49.650;8.574;2022-07-29T13:01:51;12.10;;;6.10;;
2792;SDS011;1404;49.650;8.574;2022-07-29T13:07:13;6.93;;;4.93;;
2792;SDS011;1404;49.650;8.574;2022-07-29T13:09:43;4.97;;;4.03;;
2792;SDS011;1404;49.650;8.574;2022-07-29T13:12:11;7.00;;;5.03;;
2792;SDS011;1404;49.650;8.574;2022-07-29T13:14:39;10.50;;;4.00;;
2792;SDS011;1404;49.650;8.574;2022-07-29T13:19:41;10.00;;;4.60;;
2792;SDS011;1404;49.650;8.574;2022-07-29T13:22:12;6.60;;;4.03;;
2792;SDS011;1404;49.650;8.574;2022-07-29T13:24:46;5.90;;;5.00;;
2792;SDS011;1404;49.650;8.574;2022-07-29T13:27:16;7.50;;;4.63;;
2792;SDS011;1404;49.650;8.574;2022-07-29T13:29:42;8.60;;;4.77;;
2792;SDS011;1404;49.650;8.574;2022-07-29T13:32:08;4.80;;;4.40;;
2792;SDS011;1404;49.650;8.574;2022-07-29T13:34:34;4.33;;;3.93;;
2792;SDS011;1404;49.650;8.574;2022-07-29T13:37:00;5.03;;;3.97;;
2792;SDS011;1404;49.650;8.574;2022-07-29T13:39:26;5.13;;;4.40;;
2792;SDS011;1404;49.650;8.574;2022-07-29T13:41:52;7.60;;;4.00;;
2792;SDS011;1404;49.650;8.574;2022-07-29T13:44:18;7.23;;;4.40;;
2792;SDS011;1404;49.650;8.574;2022-07-29T13:46:44;4.50;;;4.10;;
2792;SDS011;1404;49.650;8.574;2022-07-29T13:49:10;6.20;;;4.13;;
2792;SDS011;1404;49.650;8.574;2022-07-29T13:51:37;4.37;;;4.00;;
2792;SDS011;1404;49.650;8.574;2022-07-29T13:54:03;8.47;;;4.23;;
2792;SDS011;1404;49.650;8.574;2022-07-29T13:56:29;4.57;;;4.23;;
2792;SDS011;1404;49.650;8.574;2022-07-29T13:58:55;8.33;;;3.80;;
2792;SDS011;1404;49.650;8.574;2022-07-29T14:01:22;6.80;;;4.10;;
2792;SDS011;1404;49.650;8.574;2022-07-29T14:03:48;5.77;;;4.10;;
2792;SDS011;1404;49.650;8.574;2022-07-29T14:06:14;7.80;;;4.17;;
2792;SDS011;1404;49.650;8.574;2022-07-29T14:08:40;7.77;;;5.40;;
2792;SDS011;1404;49.650;8.574;2022-07-29T14:11:06;5.40;;;4.30;;
2792;SDS011;1404;49.650;8.574;2022-07-29T14:13:32;4.60;;;4.20;;
2792;SDS011;1404;49.650;8.574;2022-07-29T14:15:58;5.77;;;4.80;;
2792;SDS011;1404;49.650;8.574;2022-07-29T14:18:24;4.90;;;3.90;;
2792;SDS011;1404;49.650;8.574;2022-07-29T14:20:50;5.63;;;4.80;;
2792;SDS011;1404;49.650;8.574;2022-07-29T14:23:17;7.63;;;4.37;;
2792;SDS011;1404;49.650;8.574;2022-07-29T14:25:43;4.20;;;3.90;;
2792;SDS011;1404;49.650;8.574;2022-07-29T14:28:09;5.93;;;4.97;;
2792;SDS011;1404;49.650;8.574;2022-07-29T14:30:35;5.37;;;4.37;;
2792;SDS011;1404;49.650;8.574;2022-07-29T14:33:02;4.13;;;3.77;;
2792;SDS011;1404;49.650;8.574;2022-07-29T14:35:28;12.23;;;4.27;;
2792;SDS011;1404;49.650;8.574;2022-07-29T14:37:54;4.67;;;3.60;;
2792;SDS011;1404;49.650;8.574;2022-07-29T14:40:20;5.50;;;4.83;;
2792;SDS011;1404;49.650;8.574;2022-07-29T14:42:46;5.53;;;4.47;;
2792;SDS011;1404;49.650;8.574;2022-07-29T14:45:12;5.70;;;4.70;;
2792;SDS011;1404;49.650;8.574;2022-07-29T14:47:38;5.03;;;4.60;;
2792;SDS011;1404;49.650;8.574;2022-07-29T14:50:05;4.90;;;4.40;;
2792;SDS011;1404;49.650;8.574;2022-07-29T14:52:31;5.10;;;4.60;;
2792;SDS011;1404;49.650;8.574;2022-07-29T14:54:57;6.10;;;4.70;;
2792;SDS011;1404;49.650;8.574;2022-07-29T14:57:24;6.37;;;4.33;;
2792;SDS011;1404;49.650;8.574;2022-07-29T14:59:50;6.60;;;5.20;;
2792;SDS011;1404;49.650;8.574;2022-07-29T15:02:16;7.20;;;5.20;;
2792;SDS011;1404;49.650;8.574;2022-07-29T15:04:42;4.73;;;4.20;;
2792;SDS011;1404;49.650;8.574;2022-07-29T15:07:11;5.07;;;4.20;;
2792;SDS011;1404;49.650;8.574;2022-07-29T15:09:37;7.33;;;4.67;;
2792;SDS011;1404;49.650;8.574;2022-07-29T15:12:03;6.33;;;5.20;;
2792;SDS011;1404;49.650;8.574;2022-07-29T15:14:29;6.03;;;3.93;;
2792;SDS011;1404;49.650;8.574;2022-07-29T15:16:56;4.53;;;4.00;;
2792;SDS011;1404;49.650;8.574;2022-07-29T15:19:22;6.30;;;4.70;;
2792;SDS011;1404;49.650;8.574;2022-07-29T15:21:49;6.20;;;4.90;;
2792;SDS011;1404;49.650;8.574;2022-07-29T15:24:15;11.77;;;4.60;;
2792;SDS011;1404;49.650;8.574;2022-07-29T15:26:42;10.40;;;4.50;;
2792;SDS011;1404;49.650;8.574;2022-07-29T15:29:08;6.10;;;4.43;;
2792;SDS011;1404;49.650;8.574;2022-07-29T15:31:34;4.43;;;4.00;;
2792;SDS011;1404;49.650;8.574;2022-07-29T15:34:00;5.63;;;5.07;;
2792;SDS011;1404;49.650;8.574;2022-07-29T15:36:26;4.77;;;3.97;;
2792;SDS011;1404;49.650;8.574;2022-07-29T15:38:53;5.27;;;4.80;;
2792;SDS011;1404;49.650;8.574;2022-07-29T15:41:19;5.33;;;3.93;;
2792;SDS011;1404;49.650;8.574;2022-07-29T15:43:46;11.20;;;4.40;;
2792;SDS011;1404;49.650;8.574;2022-07-29T15:46:13;7.63;;;4.20;;
2792;SDS011;1404;49.650;8.574;2022-07-29T15:48:58;4.20;;;3.80;;
2792;SDS011;1404;49.650;8.574;2022-07-29T15:51:24;5.00;;;3.73;;
2792;SDS011;1404;49.650;8.574;2022-07-29T15:53:50;7.47;;;5.03;;